Time;durP1;ratioP1;P1;durP2;ratioP2;P2;SDS_P1;SDS_P2;PMS_P1;PMS_P2;Temp;Humidity;BMP_temperature;BMP_pressure;BME280_temperature;BME280_humidity;BME280_pressure;Samples;Min_cycle;Max_cycle;Signal;HPM_P1;HPM_P2
2022/06/01 00:03:12;;;;;;;3.73;3.10;;;;;;;17.93;50.77;98554.69;6948649;28;20632;-77
2022/06/01 00:06:34;;;;;;;3.43;3.13;;;;;;;17.82;50.61;98522.94;6948452;28;20214;-77
2022/06/01 00:09:56;;;;;;;3.40;3.10;;;;;;;17.80;51.49;98548.84;6948004;28;20307;-77
2022/06/01 00:13:19;;;;;;;5.13;3.10;;;;;;;17.80;51.12;98537.94;6942799;28;20210;-77
2022/06/01 00:16:42;;;;;;;4.50;2.93;;;;;;;18.02;50.71;98544.13;6948339;28;20238;-77
2022/06/01 00:20:04;;;;;;;3.40;3.07;;;;;;;18.00;50.68;98543.59;6947111;28;20722;-77
2022/06/01 00:23:26;;;;;;;6.23;3.43;;;;;;;17.92;50.73;98539.41;6948468;28;20324;-78
2022/06/01 00:26:49;;;;;;;4.40;3.47;;;;;;;17.73;51.17;98542.75;6948601;28;20214;-77
2022/06/01 00:30:14;;;;;;;3.50;2.90;;;;;;;17.59;51.80;98547.81;6947794;28;20265;-77
2022/06/01 00:33:37;;;;;;;4.30;3.00;;;;;;;17.51;52.15;98550.16;6948579;28;20294;-77
2022/06/01 00:36:59;;;;;;;3.77;3.37;;;;;;;17.18;53.01;98551.09;6948230;28;20199;-77
2022/06/01 00:40:23;;;;;;;3.63;3.27;;;;;;;17.37;52.20;98537.97;6947380;28;20223;-77
2022/06/01 00:43:46;;;;;;;4.00;3.40;;;;;;;17.30;53.00;98553.69;6948089;28;20273;-77
2022/06/01 00:47:10;;;;;;;6.03;3.50;;;;;;;16.73;54.16;98547.75;6947723;28;20206;-77
2022/06/01 00:50:36;;;;;;;4.37;3.40;;;;;;;16.74;54.90;98557.56;6947250;28;20718;-77
2022/06/01 00:53:59;;;;;;;4.37;3.53;;;;;;;17.08;53.83;98550.13;6947358;28;20191;-77
2022/06/01 00:57:20;;;;;;;4.23;3.50;;;;;;;17.10;54.09;98576.03;6947286;28;20350;-77
2022/06/01 01:00:44;;;;;;;3.90;3.57;;;;;;;17.37;53.32;98565.22;6946846;28;20269;-77
2022/06/01 01:04:08;;;;;;;3.60;3.30;;;;;;;17.59;52.52;98566.91;6947522;28;20190;-77
2022/06/01 01:07:30;;;;;;;6.03;3.30;;;;;;;17.51;51.77;98563.78;6946658;28;20202;-77
2022/06/01 01:10:51;;;;;;;4.33;3.50;;;;;;;16.50;55.49;98572.44;6946555;28;20246;-77
2022/06/01 01:14:15;;;;;;;4.53;3.30;;;;;;;16.68;55.48;98566.72;6947234;28;20218;-77
2022/06/01 01:17:37;;;;;;;3.50;3.20;;;;;;;16.86;54.66;98546.56;6946888;28;20222;-77
2022/06/01 01:21:10;;;;;;;5.03;3.60;;;;;;;17.24;53.88;98566.44;6946359;28;20235;-77
2022/06/01 01:24:37;;;;;;;4.17;3.40;;;;;;;17.53;52.73;98575.25;6947503;28;20735;-77
2022/06/01 01:28:03;;;;;;;5.63;3.47;;;;;;;17.47;52.12;98560.75;6946430;28;20189;-77
2022/06/01 01:31:26;;;;;;;3.60;3.00;;;;;;;17.57;52.36;98560.06;6947072;28;20261;-77
2022/06/01 01:34:47;;;;;;;3.50;3.20;;;;;;;17.44;52.55;98554.97;6947227;28;20711;-76
2022/06/01 01:38:11;;;;;;;3.97;3.40;;;;;;;16.91;54.16;98557.50;6945969;28;20211;-77
2022/06/01 01:41:38;;;;;;;4.03;3.60;;;;;;;16.63;54.96;98555.75;6946893;28;20292;-77
2022/06/01 01:45:07;;;;;;;3.97;3.57;;;;;;;16.89;54.16;98551.50;6946817;28;20211;-77
2022/06/01 01:48:30;;;;;;;3.97;3.67;;;;;;;16.63;54.81;98553.03;6946417;28;20186;-77
2022/06/01 01:51:53;;;;;;;4.90;3.43;;;;;;;16.62;55.11;98540.50;6946801;28;20241;-76
2022/06/01 01:55:25;;;;;;;4.40;3.83;;;;;;;16.15;56.40;98558.22;6946647;28;20206;-78
2022/06/01 01:58:59;;;;;;;4.00;3.60;;;;;;;16.37;56.89;98572.75;6946072;28;20295;-77
2022/06/01 02:02:26;;;;;;;7.33;3.90;;;;;;;17.13;54.05;98556.47;6946326;28;20460;-77
2022/06/01 02:06:07;;;;;;;3.70;3.40;;;;;;;16.98;54.40;98567.16;6946333;28;20205;-77
2022/06/01 02:12:40;;;;;;;5.57;3.63;;;;;;;16.88;54.52;98561.56;6951575;28;20710;-77
2022/06/01 02:13:10;;;;;;;3.93;3.43;;;;;;;16.83;54.62;98569.69;6937476;28;20222;-78
2022/06/01 02:16:36;;;;;;;5.83;3.77;;;;;;;16.47;54.93;98563.94;6925362;28;20219;-77
2022/06/01 02:20:01;;;;;;;6.60;3.70;;;;;;;16.25;56.20;98554.84;6923440;28;20293;-77
2022/06/01 02:23:23;;;;;;;5.60;3.33;;;;;;;16.66;54.81;98558.00;6923297;28;20226;-77
2022/06/01 02:26:46;;;;;;;3.93;3.53;;;;;;;17.04;53.37;98557.19;6924951;28;20195;-77
2022/06/01 02:30:10;;;;;;;4.67;3.50;;;;;;;17.08;52.71;98569.19;6923650;28;20610;-77
2022/06/01 02:33:34;;;;;;;4.43;3.77;;;;;;;15.57;57.56;98559.59;6928260;28;20252;-77
2022/06/01 02:36:58;;;;;;;4.70;4.30;;;;;;;16.04;56.56;98552.88;6923088;28;20232;-77
2022/06/01 02:40:22;;;;;;;4.27;3.70;;;;;;;16.33;55.64;98551.72;6922552;28;20233;-77
2022/06/01 02:43:51;;;;;;;4.63;3.50;;;;;;;16.52;55.29;98564.84;6923122;28;20235;-77
2022/06/01 02:47:12;;;;;;;4.67;3.67;;;;;;;16.03;56.61;98548.47;6922616;28;20197;-78
2022/06/01 02:50:35;;;;;;;5.17;4.33;;;;;;;16.03;57.07;98557.47;6921818;28;20465;-77
2022/06/01 02:53:58;;;;;;;4.50;4.10;;;;;;;16.14;56.27;98570.19;6923511;28;20213;-77
2022/06/01 02:57:20;;;;;;;4.50;4.07;;;;;;;16.54;55.32;98560.00;6923667;28;20205;-77
2022/06/01 03:00:42;;;;;;;3.73;3.43;;;;;;;16.70;54.71;98558.31;6924080;28;20241;-77
2022/06/01 03:04:05;;;;;;;4.53;3.70;;;;;;;15.99;57.39;98561.75;6924388;28;20232;-77
2022/06/01 03:07:27;;;;;;;4.27;3.87;;;;;;;16.54;55.64;98570.88;6924269;28;20202;-78
2022/06/01 03:10:50;;;;;;;5.30;4.10;;;;;;;15.99;56.77;98585.41;6924434;28;20370;-77
2022/06/01 03:14:12;;;;;;;4.03;3.73;;;;;;;15.85;56.65;98554.13;6924240;28;20579;-78
2022/06/01 03:17:33;;;;;;;4.60;4.03;;;;;;;16.24;56.11;98572.25;6923583;28;20242;-78
2022/06/01 03:20:56;;;;;;;4.87;4.00;;;;;;;16.26;55.15;98568.19;6924263;28;20311;-77
2022/06/01 03:24:18;;;;;;;4.07;3.60;;;;;;;16.23;55.58;98570.59;6922406;28;20233;-77
2022/06/01 03:27:41;;;;;;;4.50;4.10;;;;;;;15.87;56.16;98565.63;6923521;28;20232;-77
2022/06/01 03:31:02;;;;;;;7.00;3.63;;;;;;;15.67;56.56;98566.06;6923646;28;20277;-76
2022/06/01 03:34:25;;;;;;;4.13;3.70;;;;;;;15.27;58.56;98578.00;6923839;28;20824;-76
2022/06/01 03:37:47;;;;;;;4.97;3.97;;;;;;;15.95;57.21;98563.31;6923425;28;20206;-77
2022/06/01 03:41:09;;;;;;;3.70;3.40;;;;;;;16.27;56.01;98561.69;6923270;28;20270;-77
2022/06/01 03:48:12;;;;;;;4.70;4.07;;;;;;;15.96;55.77;98562.25;6922690;28;20215;-77
2022/06/01 03:51:34;;;;;;;4.53;4.00;;;;;;;15.89;56.68;98577.91;6923031;28;20243;-77
2022/06/01 03:54:56;;;;;;;6.20;5.60;;;;;;;16.02;56.22;98560.44;6923345;28;20198;-77
2022/06/01 03:58:21;;;;;;;10.47;5.17;;;;;;;15.80;56.67;98565.75;6922177;28;20249;-76
2022/06/01 04:01:44;;;;;;;4.30;3.90;;;;;;;15.93;56.79;98579.03;6922939;28;20305;-77
2022/06/01 04:05:07;;;;;;;5.10;4.33;;;;;;;15.51;57.96;98587.75;6922855;28;20294;-78
2022/06/01 04:08:28;;;;;;;5.23;4.03;;;;;;;16.04;57.29;98594.47;6921628;28;20216;-77
2022/06/01 04:11:51;;;;;;;5.10;4.60;;;;;;;16.22;56.18;98574.41;6922380;28;20312;-75
2022/06/01 04:15:13;;;;;;;4.40;4.00;;;;;;;16.35;55.76;98582.22;6962353;28;20198;-76
2022/06/01 04:18:36;;;;;;;4.73;4.23;;;;;;;16.28;55.79;98592.44;6975977;28;20219;-76
2022/06/01 04:21:57;;;;;;;4.70;4.23;;;;;;;16.30;55.95;98587.56;6972008;28;20319;-77
2022/06/01 04:25:19;;;;;;;4.90;4.17;;;;;;;16.30;56.13;98598.47;6952429;28;20211;-78
2022/06/01 04:28:41;;;;;;;4.93;4.40;;;;;;;16.19;56.91;98599.34;6951096;28;20245;-78
2022/06/01 04:32:05;;;;;;;5.83;4.60;;;;;;;16.21;56.70;98591.78;6949117;28;20296;-78
2022/06/01 04:35:28;;;;;;;4.40;3.90;;;;;;;16.26;56.58;98595.41;6928103;28;20567;-78
2022/06/01 04:38:50;;;;;;;6.67;4.63;;;;;;;16.60;56.11;98593.53;6958091;28;20213;-78
2022/06/01 04:42:11;;;;;;;4.87;4.37;;;;;;;16.83;55.77;98594.19;6976095;28;20233;-79
2022/06/01 04:45:33;;;;;;;4.60;4.20;;;;;;;17.00;54.51;98577.81;6976949;28;20243;-78
2022/06/01 04:48:54;;;;;;;4.83;3.93;;;;;;;17.31;53.88;98577.13;6976013;28;20703;-80
2022/06/01 04:52:17;;;;;;;4.60;3.53;;;;;;;17.18;53.71;98581.06;6976938;28;20295;-79
2022/06/01 04:55:39;;;;;;;5.60;4.10;;;;;;;17.92;52.96;98574.06;6980852;28;20206;-81
2022/06/01 04:59:01;;;;;;;4.97;3.70;;;;;;;18.26;52.42;98568.09;6960608;28;20219;-79
2022/06/01 05:02:23;;;;;;;4.20;3.80;;;;;;;18.53;51.06;98559.91;6948284;28;20288;-78
2022/06/01 05:05:44;;;;;;;4.73;3.60;;;;;;;18.90;51.00;98569.72;6950223;28;20207;-78
2022/06/01 05:09:08;;;;;;;4.60;3.63;;;;;;;19.16;50.55;98579.69;6949573;28;20263;-78
2022/06/01 05:12:29;;;;;;;4.13;3.40;;;;;;;19.25;50.84;98578.16;6950184;28;20278;-79
2022/06/01 05:15:52;;;;;;;4.37;3.40;;;;;;;19.11;50.72;98557.81;6950933;28;20738;-79
2022/06/01 05:19:14;;;;;;;3.43;3.10;;;;;;;19.12;51.20;98580.50;6949246;28;20237;-79
2022/06/01 05:22:35;;;;;;;3.93;3.50;;;;;;;19.76;49.42;98574.50;6948824;28;20335;-79
2022/06/01 05:25:59;;;;;;;3.10;2.80;;;;;;;20.36;46.83;98552.75;6950280;28;20187;-79
2022/06/01 05:29:22;;;;;;;4.77;2.50;;;;;;;21.23;45.46;98566.09;6949390;28;20226;-78
2022/06/01 05:32:43;;;;;;;9.90;3.10;;;;;;;21.94;43.98;98574.56;6950153;28;20204;-78
2022/06/01 05:36:06;;;;;;;2.63;2.43;;;;;;;22.27;41.50;98549.09;6976541;28;20210;-79
2022/06/01 05:39:27;;;;;;;3.63;2.47;;;;;;;22.58;41.30;98579.91;6977409;28;20256;-78
2022/06/01 05:42:50;;;;;;;2.50;2.30;;;;;;;22.73;40.70;98536.59;6979179;28;20247;-78
2022/06/01 05:46:12;;;;;;;3.50;2.47;;;;;;;22.99;40.72;98575.66;6977104;28;20661;-78
2022/06/01 05:49:33;;;;;;;2.93;2.40;;;;;;;23.23;40.15;98557.28;6960008;28;20218;-79
2022/06/01 05:52:55;;;;;;;3.37;2.40;;;;;;;23.26;40.69;98563.00;6956316;28;20209;-78
2022/06/01 05:56:16;;;;;;;2.70;2.27;;;;;;;23.00;41.34;98556.13;6954785;28;20265;-78
2022/06/01 05:59:39;;;;;;;3.40;2.50;;;;;;;23.83;39.67;98556.53;6953911;28;20228;-79
2022/06/01 06:03:01;;;;;;;3.63;2.33;;;;;;;23.69;38.20;98548.19;6939039;28;20235;-78
2022/06/01 06:06:23;;;;;;;6.20;2.57;;;;;;;23.89;38.74;98560.91;6927571;28;20264;-78
2022/06/01 06:09:45;;;;;;;3.43;2.37;;;;;;;24.62;37.19;98557.31;6927109;28;20432;-78
2022/06/01 06:13:06;;;;;;;2.97;2.23;;;;;;;24.83;36.51;98541.22;6927597;28;20282;-79
2022/06/01 06:16:34;;;;;;;3.73;2.53;;;;;;;24.16;37.52;98566.56;6927722;28;20210;-78
2022/06/01 06:19:56;;;;;;;3.90;2.50;;;;;;;23.49;39.55;98575.16;6934657;28;20244;-78
2022/06/01 06:23:18;;;;;;;4.73;2.07;;;;;;;23.05;39.00;98566.25;6953863;28;20223;-78
2022/06/01 06:26:41;;;;;;;2.40;2.20;;;;;;;23.99;36.66;98552.47;6954987;28;20202;-79
2022/06/01 06:30:02;;;;;;;2.20;2.00;;;;;;;24.30;37.69;98581.22;6954611;28;20229;-78
2022/06/01 06:33:25;;;;;;;2.70;2.20;;;;;;;23.40;36.45;98560.38;6954379;28;20203;-78
2022/06/01 06:36:47;;;;;;;5.50;2.30;;;;;;;22.97;37.67;98575.16;6952737;28;20197;-79
2022/06/01 06:40:10;;;;;;;4.03;2.40;;;;;;;23.28;37.96;98576.50;6954245;28;20723;-79
2022/06/01 06:43:33;;;;;;;3.70;2.00;;;;;;;25.39;34.25;98573.00;6968425;28;20279;-79
2022/06/01 06:46:55;;;;;;;2.30;2.10;;;;;;;25.81;33.46;98560.81;6962441;28;20219;-79
2022/06/01 06:50:20;;;;;;;3.77;2.37;;;;;;;24.39;35.94;98571.16;6965066;28;20316;-79
2022/06/01 06:53:42;;;;;;;2.87;2.53;;;;;;;25.59;34.16;98561.53;6971249;28;20203;-79
2022/06/01 06:57:03;;;;;;;2.73;2.03;;;;;;;24.74;35.61;98562.34;6970048;28;20234;-79
2022/06/01 07:00:25;;;;;;;2.50;2.13;;;;;;;24.31;36.69;98556.09;6954597;28;20312;-78
2022/06/01 07:03:46;;;;;;;3.80;2.50;;;;;;;23.09;37.66;98553.56;6944316;28;20255;-78
2022/06/01 07:07:09;;;;;;;6.10;2.57;;;;;;;23.88;37.60;98562.81;6926733;28;20577;-78
2022/06/01 07:10:31;;;;;;;3.87;2.30;;;;;;;24.76;36.25;98563.66;6926306;28;20235;-79
2022/06/01 07:13:53;;;;;;;4.67;2.43;;;;;;;24.80;35.83;98561.13;6927609;28;20215;-78
2022/06/01 07:17:14;;;;;;;2.70;2.50;;;;;;;24.54;36.79;98533.13;6926690;28;20338;-78
2022/06/01 07:20:36;;;;;;;4.00;2.40;;;;;;;24.59;35.43;98546.88;6925878;28;20255;-79
2022/06/01 07:23:59;;;;;;;3.17;2.50;;;;;;;23.66;37.41;98568.03;6925292;28;20240;-79
2022/06/01 07:27:21;;;;;;;3.33;2.20;;;;;;;25.39;34.81;98548.16;6939684;28;20245;-79
2022/06/01 07:30:42;;;;;;;3.40;2.40;;;;;;;26.71;32.93;98553.22;6952460;28;20232;-79
2022/06/01 07:34:05;;;;;;;3.03;2.67;;;;;;;25.36;34.93;98559.81;6954162;28;20214;-79
2022/06/01 07:44:50;;;;;;;3.37;2.27;;;;;;;25.32;35.96;98560.72;6953277;28;20223;-79
2022/06/01 07:48:12;;;;;;;2.40;2.20;;;;;;;26.69;33.56;98547.16;6949810;28;20316;-77
2022/06/01 07:51:34;;;;;;;3.20;2.30;;;;;;;26.71;33.47;98551.25;6951144;28;20216;-77
2022/06/01 07:54:55;;;;;;;3.20;2.20;;;;;;;27.78;31.80;98548.06;6950427;28;20246;-77
2022/06/01 07:58:18;;;;;;;2.37;2.17;;;;;;;28.05;31.99;98539.44;6950711;28;20201;-77
2022/06/01 08:01:40;;;;;;;2.10;1.90;;;;;;;28.16;31.88;98547.13;6950650;28;20243;-77
2022/06/01 08:05:02;;;;;;;2.87;2.00;;;;;;;28.16;30.86;98504.72;6950483;28;20227;-78
2022/06/01 08:08:24;;;;;;;2.20;1.93;;;;;;;28.26;29.71;98548.78;6951204;28;20290;-78
2022/06/01 08:15:36;;;;;;;2.97;2.17;;;;;;;27.56;31.44;98540.63;6949695;28;20196;-79
2022/06/01 08:18:58;;;;;;;1.97;1.87;;;;;;;28.92;29.00;98526.03;6949527;28;20685;-78
2022/06/01 08:22:21;;;;;;;5.00;2.43;;;;;;;27.94;30.27;98532.59;6949311;28;20216;-79
2022/06/01 08:25:43;;;;;;;2.53;1.83;;;;;;;27.93;27.50;98517.09;6950117;28;20225;-79
2022/06/01 08:29:05;;;;;;;3.20;1.87;;;;;;;28.53;26.10;98521.53;6949806;28;20221;-78
2022/06/01 08:32:27;;;;;;;5.37;2.20;;;;;;;28.84;28.09;98519.34;6950587;28;20214;-78
2022/06/01 08:35:51;;;;;;;2.20;1.90;;;;;;;27.74;27.00;98517.38;6950331;28;20204;-78
2022/06/01 08:39:13;;;;;;;2.03;1.87;;;;;;;29.44;26.87;98520.00;6949663;28;20220;-79
2022/06/01 08:42:35;;;;;;;4.23;1.80;;;;;;;28.58;28.60;98503.91;6958066;28;20217;-80
2022/06/01 08:45:59;;;;;;;1.93;1.67;;;;;;;27.68;23.81;98490.13;6960399;28;20232;-78
2022/06/01 08:49:25;;;;;;;2.17;1.67;;;;;;;29.12;23.50;98498.41;6949967;28;20707;-78
2022/06/01 08:52:46;;;;;;;1.60;1.50;;;;;;;29.26;23.24;98514.84;6952453;28;20190;-80
2022/06/01 08:56:11;;;;;;;1.90;1.80;;;;;;;29.46;22.77;98528.00;6961761;28;20210;-78
2022/06/01 08:59:41;;;;;;;2.17;1.57;;;;;;;29.16;22.69;98535.47;6949524;28;20222;-78
2022/06/01 09:03:07;;;;;;;1.90;1.70;;;;;;;29.01;23.75;98538.78;6947632;28;20235;-77
2022/06/01 09:06:34;;;;;;;2.23;1.80;;;;;;;28.71;23.94;98522.34;6927049;28;20583;-78
2022/06/01 09:10:08;;;;;;;3.53;1.77;;;;;;;27.85;24.37;98532.56;6949680;28;20227;-76
2022/06/01 09:13:35;;;;;;;2.23;1.50;;;;;;;29.30;23.63;98521.38;6949137;28;20208;-78
2022/06/01 09:16:57;;;;;;;2.83;1.73;;;;;;;29.24;22.79;98539.38;6949234;28;20193;-78
2022/06/01 09:23:59;;;;;;;2.33;1.70;;;;;;;28.66;23.25;98537.19;6948059;28;20209;-78
2022/06/01 09:27:35;;;;;;;5.47;1.80;;;;;;;28.37;24.28;98534.28;6950032;28;20694;-77
2022/06/01 09:30:58;;;;;;;2.20;1.40;;;;;;;28.59;23.66;98530.50;6948991;28;20232;-77
2022/06/01 09:34:28;;;;;;;3.50;2.00;;;;;;;28.68;26.06;98534.91;6949713;28;20207;-78
2022/06/01 09:37:49;;;;;;;4.00;2.20;;;;;;;27.34;28.84;98546.25;6948747;28;20230;-78
2022/06/01 09:41:25;;;;;;;4.63;2.47;;;;;;;25.99;30.82;98548.81;6948820;28;20361;-77
2022/06/01 09:44:49;;;;;;;2.93;2.20;;;;;;;26.19;30.48;98557.47;6948463;28;20229;-77
2022/06/01 09:48:13;;;;;;;4.83;2.20;;;;;;;26.67;29.77;98558.53;6948947;28;20211;-78
2022/06/01 09:51:38;;;;;;;3.40;2.00;;;;;;;26.91;29.09;98558.22;6948126;28;20296;-78
2022/06/01 09:55:09;;;;;;;4.27;1.90;;;;;;;27.11;28.76;98564.03;6949041;28;20192;-78
2022/06/01 10:06:09;;;;;;;6.47;2.20;;;;;;;26.72;28.61;98552.88;6947686;28;20692;-78
2022/06/01 10:09:32;;;;;;;3.23;2.10;;;;;;;27.15;28.47;98567.81;6948786;28;20226;-79
2022/06/01 10:12:55;;;;;;;3.60;2.40;;;;;;;28.24;28.32;98551.06;6950640;28;20608;-78
2022/06/01 10:16:27;;;;;;;4.20;2.43;;;;;;;29.05;26.55;98539.75;6952304;28;20203;-80
2022/06/01 10:19:54;;;;;;;2.07;1.73;;;;;;;28.91;25.92;98550.19;6950718;28;20234;-80
2022/06/01 10:23:20;;;;;;;6.40;2.10;;;;;;;28.84;25.38;98527.69;6951692;28;20681;-80
2022/06/01 10:26:48;;;;;;;2.80;1.80;;;;;;;29.32;25.12;98541.31;6951392;28;20208;-80
2022/06/01 10:30:17;;;;;;;3.53;1.87;;;;;;;28.99;25.44;98546.63;6954931;28;20324;-78
2022/06/01 10:33:44;;;;;;;4.33;1.87;;;;;;;28.37;24.68;98552.88;6955526;28;20203;-79
2022/06/01 10:37:13;;;;;;;2.00;1.80;;;;;;;28.85;24.51;98551.50;6956457;28;20187;-78
2022/06/01 10:40:38;;;;;;;3.50;1.73;;;;;;;28.26;24.85;98502.44;6956416;28;20223;-79
2022/06/01 10:44:06;;;;;;;3.33;2.00;;;;;;;28.95;23.52;98531.78;6956384;28;20244;-78
2022/06/01 10:47:33;;;;;;;2.63;1.73;;;;;;;29.90;23.07;98550.50;6954056;28;20195;-79
2022/06/01 10:51:03;;;;;;;2.90;2.00;;;;;;;29.92;23.15;98533.47;6955921;28;20230;-78
2022/06/01 10:54:29;;;;;;;1.73;1.60;;;;;;;28.52;23.40;98539.34;6960938;28;20203;-79
2022/06/01 10:57:50;;;;;;;3.57;1.90;;;;;;;28.82;24.33;98545.81;6957599;28;20205;-79
2022/06/01 11:01:24;;;;;;;2.53;1.97;;;;;;;28.52;24.04;98546.84;6954128;28;20520;-79
2022/06/01 11:05:00;;;;;;;4.20;2.03;;;;;;;28.19;24.30;98552.03;6940549;28;20312;-79
2022/06/01 11:08:34;;;;;;;1.97;1.50;;;;;;;28.29;24.26;98554.47;6925810;28;20227;-79
2022/06/01 11:12:05;;;;;;;6.17;2.00;;;;;;;27.70;25.41;98544.09;6931653;28;20196;-78
2022/06/01 11:15:37;;;;;;;1.83;1.63;;;;;;;28.35;23.67;98553.19;6948808;28;20199;-79
2022/06/01 11:19:05;;;;;;;3.50;1.90;;;;;;;28.13;23.42;98531.13;6957450;28;20315;-79
2022/06/01 11:22:51;;;;;;;3.00;1.53;;;;;;;28.20;24.45;98520.38;6961236;28;20270;-79
2022/06/01 11:26:23;;;;;;;1.80;1.70;;;;;;;29.18;24.19;98524.84;6968479;28;20223;-79
2022/06/01 11:29:59;;;;;;;1.70;1.60;;;;;;;29.30;20.48;98527.72;6958811;28;20600;-79
2022/06/01 11:33:27;;;;;;;1.80;1.40;;;;;;;29.60;19.88;98523.84;6954688;28;20209;-79
2022/06/01 11:36:51;;;;;;;2.77;1.17;;;;;;;28.79;20.35;98536.19;6955051;28;20192;-80
2022/06/01 11:40:17;;;;;;;1.53;1.40;;;;;;;28.43;20.70;98529.41;6954195;28;20223;-79
2022/06/01 11:43:43;;;;;;;1.43;1.33;;;;;;;28.66;20.36;98503.09;6954156;28;20224;-79
2022/06/01 11:47:09;;;;;;;2.10;1.50;;;;;;;29.20;18.99;98524.53;6954097;28;20207;-79
2022/06/01 11:50:48;;;;;;;1.50;1.40;;;;;;;29.45;19.08;98513.31;6953666;28;20234;-79
2022/06/01 11:54:14;;;;;;;1.20;1.10;;;;;;;29.25;19.06;98514.03;6954890;28;20193;-79
2022/06/01 11:57:41;;;;;;;1.40;1.30;;;;;;;28.81;19.94;98531.13;6953992;28;20186;-80
2022/06/01 12:01:12;;;;;;;3.83;1.47;;;;;;;29.28;19.48;98526.44;6954623;28;20247;-79
2022/06/01 12:04:53;;;;;;;1.80;1.40;;;;;;;30.40;19.09;98525.44;6954979;28;20211;-80
2022/06/01 12:08:23;;;;;;;1.80;1.60;;;;;;;29.90;19.55;98511.56;6955397;28;20185;-79
2022/06/01 12:11:46;;;;;;;2.07;1.37;;;;;;;29.32;19.55;98519.06;6953661;28;20220;-79
2022/06/01 12:15:17;;;;;;;2.23;1.33;;;;;;;28.82;19.85;98521.66;6954587;28;20255;-79
2022/06/01 12:18:54;;;;;;;1.60;1.33;;;;;;;29.42;19.70;98508.41;6953149;28;20202;-79
2022/06/01 12:29:43;;;;;;;5.27;1.37;;;;;;;30.23;18.34;98501.38;6952836;28;20225;-80
2022/06/01 12:33:11;;;;;;;1.70;1.20;;;;;;;29.79;18.90;98498.41;6953947;28;20218;-79
2022/06/01 12:36:40;;;;;;;1.77;1.33;;;;;;;30.38;18.10;98492.41;6953831;28;20203;-79
2022/06/01 12:40:06;;;;;;;1.50;1.40;;;;;;;30.59;18.13;98497.94;6952766;28;20229;-79
2022/06/01 12:43:29;;;;;;;1.60;1.50;;;;;;;31.36;17.47;98482.03;6954024;28;20579;-79
2022/06/01 12:46:51;;;;;;;1.57;1.47;;;;;;;29.45;19.76;98490.25;6954037;28;20282;-80
2022/06/01 12:50:16;;;;;;;4.47;1.83;;;;;;;29.20;19.97;98497.53;6961915;28;20249;-79
2022/06/01 12:53:44;;;;;;;2.00;1.40;;;;;;;28.71;19.56;98502.94;6964088;28;20205;-79
2022/06/01 12:57:07;;;;;;;3.47;1.67;;;;;;;29.44;19.69;98497.78;6965904;28;20207;-79
2022/06/01 13:00:31;;;;;;;1.23;1.10;;;;;;;28.98;19.29;98502.53;6967414;28;20326;-79
2022/06/01 13:03:58;;;;;;;1.40;1.30;;;;;;;28.44;20.54;98498.56;6964731;28;20226;-79
2022/06/01 13:07:20;;;;;;;3.53;1.60;;;;;;;29.43;19.84;98492.56;6971246;28;20213;-79
2022/06/01 13:10:43;;;;;;;3.13;1.40;;;;;;;29.30;20.20;98488.84;6973615;28;20242;-79
2022/06/01 13:14:08;;;;;;;1.73;1.27;;;;;;;29.72;20.17;98487.03;6980648;28;20223;-79
2022/06/01 13:17:29;;;;;;;2.60;1.40;;;;;;;29.63;20.37;98489.03;6964729;28;20576;-79
2022/06/01 13:20:55;;;;;;;1.50;1.40;;;;;;;29.92;20.18;98466.75;6958074;28;20214;-79
2022/06/01 13:24:17;;;;;;;3.53;1.57;;;;;;;28.55;20.94;98466.53;6961723;28;20216;-79
2022/06/01 13:27:40;;;;;;;3.60;1.67;;;;;;;29.47;19.98;98477.66;6966458;28;20206;-79
2022/06/01 13:31:02;;;;;;;4.23;1.70;;;;;;;28.76;21.46;98478.56;6962658;28;20722;-79
2022/06/01 13:34:30;;;;;;;2.00;1.30;;;;;;;29.22;21.78;98486.09;6940095;28;20213;-79
2022/06/01 13:37:53;;;;;;;1.97;1.83;;;;;;;29.76;21.52;98483.22;6921923;28;20565;-79
2022/06/01 13:41:22;;;;;;;3.00;1.57;;;;;;;29.70;21.68;98464.28;6922527;28;20234;-79
2022/06/01 13:44:49;;;;;;;3.10;1.70;;;;;;;30.05;21.44;98485.97;6921839;28;20592;-78
2022/06/01 13:48:17;;;;;;;2.20;1.70;;;;;;;28.96;22.09;98471.53;6921186;28;20197;-78
2022/06/01 13:51:42;;;;;;;1.70;1.50;;;;;;;28.34;22.96;98473.91;6921540;28;20244;-78
2022/06/01 13:55:09;;;;;;;2.20;1.70;;;;;;;28.71;23.22;98484.28;6921359;28;20206;-79
2022/06/01 13:58:37;;;;;;;1.67;1.57;;;;;;;28.57;23.25;98494.78;6921109;28;20213;-78
2022/06/01 14:02:03;;;;;;;1.80;1.70;;;;;;;28.19;23.57;98485.47;6920892;28;20216;-78
2022/06/01 14:05:42;;;;;;;4.20;1.90;;;;;;;28.63;23.50;98490.69;6926520;28;20311;-78
2022/06/01 14:09:07;;;;;;;2.70;1.70;;;;;;;29.46;23.02;98478.81;6925802;28;20228;-78
2022/06/01 14:12:29;;;;;;;5.83;2.07;;;;;;;29.27;23.43;98474.81;6926103;28;20211;-78
2022/06/01 14:15:51;;;;;;;3.67;2.20;;;;;;;27.87;24.23;98457.44;6926579;28;20209;-78
2022/06/01 14:19:14;;;;;;;2.20;1.93;;;;;;;28.38;23.89;98476.84;6924462;28;20240;-78
2022/06/01 14:22:36;;;;;;;2.33;1.73;;;;;;;28.38;24.64;98466.56;6926162;28;20218;-78
2022/06/01 14:29:37;;;;;;;2.47;1.70;;;;;;;28.81;24.50;98450.66;6924745;28;20593;-78
2022/06/01 14:32:59;;;;;;;3.23;2.00;;;;;;;28.58;24.11;98467.84;6925895;28;20259;-78
2022/06/01 14:36:22;;;;;;;3.23;2.00;;;;;;;29.22;23.41;98459.16;6925832;28;20238;-78
2022/06/01 14:39:44;;;;;;;1.70;1.60;;;;;;;28.96;23.71;98449.31;6925603;28;20721;-78
2022/06/01 14:43:07;;;;;;;2.80;1.70;;;;;;;29.63;22.35;98427.88;6925933;28;20209;-78
2022/06/01 14:46:29;;;;;;;3.17;1.70;;;;;;;29.39;23.29;98450.75;6925831;28;20601;-78
2022/06/01 14:49:50;;;;;;;2.87;1.90;;;;;;;28.71;23.23;98466.84;6932096;28;20217;-79
2022/06/01 14:53:21;;;;;;;3.53;2.20;;;;;;;28.43;23.70;98460.06;6933897;28;20220;-78
2022/06/01 14:56:43;;;;;;;1.70;1.60;;;;;;;29.05;22.63;98455.63;6927388;28;20273;-78
2022/06/01 15:00:06;;;;;;;5.13;2.00;;;;;;;28.79;23.77;98458.47;6925973;28;20312;-78
2022/06/01 15:03:30;;;;;;;1.93;1.73;;;;;;;28.61;23.56;98456.88;6926381;28;20214;-78
2022/06/01 15:06:52;;;;;;;3.73;2.03;;;;;;;29.32;22.85;98460.75;6926461;28;20233;-78
2022/06/01 15:10:15;;;;;;;6.53;1.83;;;;;;;28.93;23.62;98449.94;6925698;28;20716;-78
2022/06/01 15:13:36;;;;;;;3.80;1.70;;;;;;;28.91;22.77;98457.78;6926204;28;20234;-78
2022/06/01 15:17:00;;;;;;;2.87;1.90;;;;;;;28.72;23.30;98452.63;6925544;28;20218;-79
2022/06/01 15:20:22;;;;;;;3.97;2.17;;;;;;;28.93;23.54;98450.75;6925820;28;20314;-78
2022/06/01 15:23:44;;;;;;;4.00;1.90;;;;;;;28.56;23.85;98445.16;6926895;28;20579;-78
2022/06/01 15:27:07;;;;;;;2.73;1.70;;;;;;;27.97;24.37;98446.84;6926510;28;20233;-78
2022/06/01 15:41:27;;;;;;;2.40;1.67;;;;;;;27.66;24.84;98437.81;6926341;28;20228;-78
2022/06/01 15:44:50;;;;;;;3.17;1.80;;;;;;;27.74;25.51;98456.44;6930099;28;20231;-78
2022/06/01 15:48:14;;;;;;;2.50;1.90;;;;;;;27.92;25.01;98447.00;6939325;28;20205;-79
2022/06/01 15:51:36;;;;;;;3.57;1.87;;;;;;;28.18;24.41;98447.00;6932505;28;20226;-78
2022/06/01 15:54:58;;;;;;;2.13;1.90;;;;;;;28.23;24.87;98447.66;6936014;28;20262;-79
2022/06/01 15:58:19;;;;;;;2.77;1.90;;;;;;;28.28;24.29;98435.56;6963784;28;20205;-78
2022/06/01 16:01:43;;;;;;;7.60;2.90;;;;;;;28.46;24.58;98456.59;6956383;28;20232;-78
2022/06/01 16:05:06;;;;;;;1.90;1.77;;;;;;;28.35;24.29;98447.78;6951913;28;20234;-78
2022/06/01 16:08:27;;;;;;;2.17;1.80;;;;;;;28.94;24.17;98449.63;6977444;28;20205;-79
2022/06/01 16:11:49;;;;;;;10.63;1.70;;;;;;;28.15;24.06;98429.06;6964400;28;20229;-78
2022/06/01 16:15:11;;;;;;;1.90;1.73;;;;;;;28.19;24.03;98454.19;6952535;28;20224;-80
2022/06/01 16:18:34;;;;;;;2.93;1.60;;;;;;;27.58;24.39;98457.19;6953553;28;20224;-79
2022/06/01 16:21:56;;;;;;;3.10;1.50;;;;;;;28.09;24.53;98458.09;6953734;28;20213;-80
2022/06/01 16:25:18;;;;;;;3.50;1.50;;;;;;;27.75;24.51;98463.59;6956004;28;20223;-80
2022/06/01 16:28:40;;;;;;;1.67;1.47;;;;;;;27.08;25.09;98470.53;6941493;28;20204;-79
2022/06/01 16:32:01;;;;;;;4.10;1.67;;;;;;;27.17;25.66;98442.91;6951195;28;20208;-79
2022/06/01 16:35:27;;;;;;;7.30;2.00;;;;;;;28.10;24.96;98465.28;6950084;28;20212;-78
2022/06/01 16:38:48;;;;;;;3.77;1.80;;;;;;;28.11;24.73;98475.22;6950459;28;20207;-82
2022/06/01 16:42:11;;;;;;;4.10;2.33;;;;;;;27.86;24.79;98461.34;6956839;28;20199;-79
2022/06/01 16:45:35;;;;;;;2.83;1.73;;;;;;;27.80;24.60;98443.25;6950163;28;20303;-79
2022/06/01 16:48:58;;;;;;;4.03;1.60;;;;;;;27.50;25.09;98461.59;6952503;28;20709;-79
2022/06/01 16:52:21;;;;;;;2.27;1.80;;;;;;;27.63;25.00;98457.03;6957713;28;20214;-78